Time;durP1;ratioP1;P1;durP2;ratioP2;P2;SDS_P1;SDS_P2;PMS_P1;PMS_P2;Temp;Humidity;BMP_temperature;BMP_pressure;BME280_temperature;BME280_humidity;BME280_pressure;Samples;Min_cycle;Max_cycle;Signal;HPM_P1;HPM_P2
2022/11/24 05:37:20;;;;;;;;;2.50;0.25;;;;;9.22;100.00;100879.75;5532455;23;49592;-71
2022/11/24 05:39:45;;;;;;;;;3.25;3.00;;;;;9.06;100.00;100857.47;5010249;28;50035;-74
2022/11/24 05:44:56;;;;;;;;;2.75;2.75;;;;;9.08;100.00;100869.78;5012088;28;49976;-74
2022/11/24 05:47:21;;;;;;;;;3.25;2.25;;;;;9.03;100.00;100863.50;5018905;28;49813;-77
2022/11/24 05:49:47;;;;;;;;;2.50;1.25;;;;;8.71;100.00;100809.34;5013654;28;49840;-77
2022/11/24 05:52:12;;;;;;;;;1.50;1.00;;;;;9.12;100.00;100887.34;5002793;28;50064;-71
2022/11/24 05:54:38;;;;;;;;;3.00;1.75;;;;;9.03;100.00;100889.69;5019953;28;49729;-78
2022/11/24 05:57:03;;;;;;;;;2.25;2.00;;;;;9.15;100.00;100899.63;5007707;28;49820;-74
2022/11/24 05:59:28;;;;;;;;;2.00;2.00;;;;;9.03;100.00;100886.19;5013097;28;49741;-73
2022/11/24 06:01:54;;;;;;;;;0.00;0.00;;;;;9.19;100.00;100919.84;5010883;28;52483;-75
2022/11/24 06:04:19;;;;;;;;;3.50;3.25;;;;;9.18;100.00;100915.47;4995163;28;52552;-74
2022/11/24 06:06:45;;;;;;;;;2.25;1.00;;;;;9.01;100.00;100899.25;5022559;28;59791;-77
2022/11/24 06:09:10;;;;;;;;;2.75;1.00;;;;;9.16;100.00;100928.47;4994758;28;49783;-76
2022/11/24 06:11:36;;;;;;;;;2.00;2.00;;;;;8.97;100.00;100893.84;5041311;28;50017;-75
2022/11/24 06:14:01;;;;;;;;;2.25;2.25;;;;;8.69;100.00;100859.03;5036542;28;64839;-70
2022/11/24 06:16:26;;;;;;;;;2.00;1.50;;;;;9.14;100.00;100939.75;5010886;28;49780;-70
2022/11/24 06:18:52;;;;;;;;;2.75;2.00;;;;;8.95;100.00;100914.78;5029947;28;49753;-73
2022/11/24 06:21:17;;;;;;;;;1.25;1.00;;;;;9.07;100.00;100933.47;5031554;28;49817;-69
2022/11/24 06:23:46;;;;;;;;;0.75;0.75;;;;;9.13;100.00;100953.72;5027725;28;50386;-69
2022/11/24 06:26:11;;;;;;;;;4.00;2.00;;;;;9.07;100.00;100941.34;5015389;28;49799;-71
2022/11/24 06:28:37;;;;;;;;;4.00;3.50;;;;;8.30;100.00;100811.59;5016850;28;49722;-70
2022/11/24 06:31:03;;;;;;;;;1.00;0.00;;;;;9.10;100.00;100957.13;5015565;28;50231;-71
2022/11/24 06:33:31;;;;;;;;;3.00;3.00;;;;;9.09;100.00;100957.09;5011038;28;51020;-81
2022/11/24 06:36:03;;;;;;;;;2.25;2.25;;;;;8.80;100.00;100909.97;5010917;28;49576;-79
2022/11/24 06:38:29;;;;;;;;;2.75;2.75;;;;;9.06;100.00;100959.59;5013835;28;49960;-76
2022/11/24 06:41:05;;;;;;;;;2.50;2.25;;;;;8.71;100.00;100912.31;5009297;28;50031;-81
2022/11/24 06:43:30;;;;;;;;;1.25;1.25;;;;;8.03;100.00;100796.81;5030144;28;50323;-78
2022/11/24 06:45:56;;;;;;;;;3.25;1.50;;;;;8.40;100.00;100863.38;5030733;28;49991;-83
2022/11/24 06:48:22;;;;;;;;;1.00;1.00;;;;;8.41;100.00;100875.63;5031157;28;49687;-79
2022/11/24 06:50:48;;;;;;;;;3.50;3.50;;;;;9.03;100.00;100981.34;5029882;28;49887;-80
2022/11/24 06:53:16;;;;;;;;;2.00;1.00;;;;;8.96;100.00;100983.72;5029898;28;49839;-79
2022/11/24 06:55:42;;;;;;;;;3.00;1.75;;;;;8.25;100.00;100889.00;5029791;28;49715;-79
2022/11/24 06:58:08;;;;;;;;;2.00;2.00;;;;;7.68;100.00;100760.81;5030023;28;49762;-80
2022/11/24 07:00:35;;;;;;;;;4.50;3.00;;;;;8.12;100.00;100860.69;5029957;28;49804;-81
2022/11/24 07:03:00;;;;;;;;;3.00;2.50;;;;;7.87;100.00;100830.25;5028897;28;50664;-80
2022/11/24 07:05:26;;;;;;;;;3.50;1.25;;;;;7.83;100.00;100833.63;5029044;28;64383;-79
2022/11/24 07:07:51;;;;;;;;;7.25;2.50;;;;;8.74;100.00;100979.56;5030148;28;49827;-80
2022/11/24 07:10:16;;;;;;;;;4.25;1.00;;;;;8.82;100.00;100994.69;5029975;28;50029;-79
2022/11/24 07:12:42;;;;;;;;;2.00;2.00;;;;;8.86;100.00;101008.75;5030200;28;50009;-81
2022/11/24 07:15:08;;;;;;;;;6.25;4.50;;;;;8.19;100.00;100928.91;5031187;28;49737;-78
2022/11/24 07:17:37;;;;;;;;;2.25;2.00;;;;;8.92;100.00;101023.75;5029614;28;49839;-78
2022/11/24 07:20:04;;;;;;;;;1.25;1.00;;;;;8.91;100.00;101025.50;5012002;28;49959;-79
2022/11/24 07:22:29;;;;;;;;;3.25;0.50;;;;;8.92;100.00;101061.31;5029134;28;49800;-79
2022/11/24 07:24:55;;;;;;;;;1.50;1.50;;;;;7.66;100.00;100823.47;5030036;28;49979;-73
2022/11/24 07:27:20;;;;;;;;;2.00;2.00;;;;;7.83;100.00;100855.41;5029628;28;49793;-79
2022/11/24 07:29:45;;;;;;;;;1.75;1.75;;;;;8.97;100.00;101054.47;5029924;28;49819;-85
2022/11/24 07:32:11;;;;;;;;;2.00;2.00;;;;;8.95;100.00;101040.44;5011318;28;51506;-79
2022/11/24 07:34:36;;;;;;;;;4.00;3.00;;;;;8.91;100.00;101027.22;5029139;28;52274;-79
2022/11/24 07:37:02;;;;;;;;;2.75;2.75;;;;;8.86;100.00;101027.94;5029207;28;49634;-79
2022/11/24 07:39:27;;;;;;;;;3.00;3.00;;;;;8.96;100.00;101033.47;5029648;28;49820;-79
2022/11/24 07:41:52;;;;;;;;;3.25;3.25;;;;;8.74;100.00;101026.69;5029037;28;56850;-78
2022/11/24 07:44:18;;;;;;;;;1.50;1.50;;;;;8.46;100.00;100954.25;5029594;28;50370;-79
2022/11/24 07:46:43;;;;;;;;;4.00;4.00;;;;;9.02;100.00;101059.88;5011499;28;49830;-78
2022/11/24 07:49:08;;;;;;;;;4.00;4.00;;;;;9.03;100.00;101075.63;5029225;28;55228;-79
2022/11/24 07:51:35;;;;;;;;;5.25;3.25;;;;;8.97;100.00;101064.94;5010936;28;51537;-79
2022/11/24 07:54:01;;;;;;;;;7.75;4.00;;;;;8.98;100.00;101055.38;5029099;28;49866;-79
2022/11/24 07:56:26;;;;;;;;;4.75;3.75;;;;;8.84;100.00;101044.47;5029177;28;49812;-78
2022/11/24 07:58:51;;;;;;;;;3.25;3.25;;;;;9.04;100.00;101079.13;5029497;28;49737;-79
2022/11/24 08:01:17;;;;;;;;;2.25;2.25;;;;;8.83;100.00;101040.06;5012350;28;56514;-79
2022/11/24 08:03:43;;;;;;;;;2.25;2.25;;;;;8.95;100.00;101060.50;5015370;28;58135;-79
2022/11/24 08:06:10;;;;;;;;;2.00;1.00;;;;;9.09;100.00;101081.06;5015863;28;49699;-78
2022/11/24 08:08:35;;;;;;;;;7.25;4.50;;;;;9.14;100.00;101078.59;5014670;28;49829;-85
2022/11/24 08:11:06;;;;;;;;;6.75;3.75;;;;;8.57;100.00;100984.25;5018089;28;50306;-86
2022/11/24 08:13:31;;;;;;;;;4.00;4.00;;;;;9.21;100.00;101084.91;5011222;28;50034;-73
2022/11/24 08:15:57;;;;;;;;;4.50;3.00;;;;;9.19;100.00;101082.25;5013317;28;49886;-71
2022/11/24 08:18:23;;;;;;;;;4.25;3.75;;;;;9.19;100.00;101087.50;5013391;28;50082;-74
2022/11/24 08:20:49;;;;;;;;;7.00;3.00;;;;;9.19;100.00;101084.88;5013007;28;51545;-73
2022/11/24 08:23:14;;;;;;;;;3.50;3.50;;;;;9.31;100.00;101111.44;5007989;28;49822;-75
2022/11/24 08:25:39;;;;;;;;;2.75;2.25;;;;;9.27;100.00;101106.06;5010998;28;54731;-69
2022/11/24 08:28:05;;;;;;;;;2.25;2.25;;;;;9.36;100.00;101120.34;5011449;28;49688;-69
2022/11/24 08:30:30;;;;;;;;;8.00;4.00;;;;;9.34;100.00;101114.16;5012354;28;50122;-70
2022/11/24 08:32:59;;;;;;;;;3.00;3.00;;;;;9.45;100.00;101124.97;5018965;28;49818;-69
2022/11/24 08:35:25;;;;;;;;;3.00;3.00;;;;;9.50;100.00;101132.97;5012905;28;49659;-70
2022/11/24 08:37:50;;;;;;;;;7.75;3.50;;;;;9.49;100.00;101128.59;5026069;28;49917;-70
2022/11/24 08:40:16;;;;;;;;;4.00;4.00;;;;;9.59;100.00;101138.50;5011683;28;72969;-69
2022/11/24 08:42:41;;;;;;;;;7.50;4.00;;;;;9.56;100.00;101130.56;5012597;28;49728;-70
2022/11/24 08:45:07;;;;;;;;;3.25;3.25;;;;;9.62;100.00;101128.09;5012721;28;49766;-70
2022/11/24 08:47:32;;;;;;;;;4.00;2.00;;;;;9.73;100.00;101140.69;5013265;28;49859;-69
2022/11/24 08:49:57;;;;;;;;;3.50;3.00;;;;;9.82;100.00;101139.19;5014644;28;59571;-69
2022/11/24 08:52:22;;;;;;;;;7.50;4.25;;;;;9.44;100.00;101065.53;5013649;28;49730;-69
2022/11/24 08:54:49;;;;;;;;;4.50;3.00;;;;;9.75;100.00;101107.56;5012614;28;49803;-72
2022/11/24 08:57:14;;;;;;;;;5.00;2.50;;;;;9.58;100.00;101059.00;5012709;28;49794;-70
2022/11/24 08:59:39;;;;;;;;;5.00;4.25;;;;;10.06;100.00;101152.16;5012196;28;50522;-70
2022/11/24 09:02:05;;;;;;;;;6.00;4.25;;;;;10.07;100.00;101135.56;5012545;28;64135;-70
2022/11/24 09:04:31;;;;;;;;;2.75;2.75;;;;;10.11;100.00;101138.31;5012326;28;49867;-72
2022/11/24 09:06:57;;;;;;;;;5.50;5.25;;;;;10.16;100.00;101143.69;5012541;28;49849;-70
2022/11/24 09:09:22;;;;;;;;;2.25;2.25;;;;;10.12;100.00;101124.34;5011909;28;49985;-71
2022/11/24 09:11:47;;;;;;;;;2.25;1.25;;;;;10.12;100.00;101119.09;5024411;28;50104;-71
2022/11/24 09:14:12;;;;;;;;;5.25;4.00;;;;;10.25;100.00;101137.00;5011523;28;62000;-71
2022/11/24 09:16:38;;;;;;;;;7.00;3.25;;;;;10.23;100.00;101138.72;5018660;28;63164;-72
2022/11/24 09:19:05;;;;;;;;;3.00;3.00;;;;;10.31;100.00;101138.91;5017121;28;49710;-71
2022/11/24 09:21:38;;;;;;;;;5.00;2.50;;;;;10.37;100.00;101146.06;5000373;28;50066;-71
2022/11/24 09:24:06;;;;;;;;;3.50;3.50;;;;;10.37;100.00;101149.56;5028875;28;49724;-71
2022/11/24 09:26:33;;;;;;;;;2.50;2.25;;;;;10.37;100.00;101125.97;5017038;28;49785;-71
2022/11/24 09:29:00;;;;;;;;;3.75;2.75;;;;;10.54;100.00;101150.94;5011829;28;50448;-69
2022/11/24 09:31:33;;;;;;;;;3.00;3.00;;;;;10.59;100.00;101143.16;5025686;28;49788;-70
2022/11/24 09:33:58;;;;;;;;;8.75;3.00;;;;;10.65;100.00;101137.22;5012454;28;49816;-72
2022/11/24 09:36:24;;;;;;;;;8.25;3.50;;;;;10.49;100.00;101105.28;5006289;28;50036;-70
2022/11/24 09:38:50;;;;;;;;;2.25;2.25;;;;;10.67;100.00;101128.50;5031372;28;50505;-71
2022/11/24 09:41:16;;;;;;;;;4.00;3.00;;;;;10.67;100.00;101131.13;5030474;28;49793;-72
2022/11/24 09:44:19;;;;;;;;;4.75;3.00;;;;;10.68;100.00;101132.03;5023135;28;49688;-72
2022/11/24 09:47:09;;;;;;;;;4.50;4.50;;;;;10.72;100.00;101124.28;5013845;28;49951;-69
2022/11/24 09:49:43;;;;;;;;;3.50;1.25;;;;;10.75;100.00;101133.97;5015294;28;49801;-71
2022/11/24 09:52:13;;;;;;;;;6.00;6.00;;;;;10.80;100.00;101132.34;5011815;28;49666;-69
2022/11/24 09:54:48;;;;;;;;;4.00;3.00;;;;;10.81;100.00;101134.13;5011931;28;49743;-69
2022/11/24 09:57:16;;;;;;;;;3.75;3.75;;;;;10.91;100.00;101143.16;5012027;28;49867;-71
2022/11/24 09:59:42;;;;;;;;;3.75;2.25;;;;;10.96;100.00;101144.13;5011413;28;50724;-70
2022/11/24 10:02:12;;;;;;;;;4.75;3.00;;;;;10.99;100.00;101149.44;5016262;28;49828;-71
2022/11/24 10:04:45;;;;;;;;;6.25;4.00;;;;;11.01;100.00;101150.41;5001119;28;50008;-72
2022/11/24 10:07:13;;;;;;;;;5.50;4.25;;;;;11.06;100.00;101151.38;5003267;28;50360;-73
2022/11/24 10:10:06;;;;;;;;;2.75;2.75;;;;;10.91;100.00;101130.00;5011763;28;50300;-71
2022/11/24 10:12:52;;;;;;;;;4.25;3.00;;;;;11.16;100.00;101146.41;5011741;28;50491;-69
2022/11/24 10:15:51;;;;;;;;;8.50;3.75;;;;;11.19;100.00;101142.94;5011446;28;49815;-71
2022/11/24 10:18:40;;;;;;;;;4.75;3.00;;;;;11.23;100.00;101131.69;5011453;28;49877;-69
2022/11/24 10:21:11;;;;;;;;;5.00;5.00;;;;;11.27;100.00;101133.50;5013478;28;51007;-68
2022/11/24 10:23:53;;;;;;;;;3.25;3.25;;;;;11.31;100.00;101118.72;5011242;28;49845;-68
2022/11/24 10:26:31;;;;;;;;;4.50;4.50;;;;;11.30;100.00;101117.84;5011608;28;49861;-68
2022/11/24 10:28:56;;;;;;;;;6.00;4.00;;;;;11.28;100.00;101101.13;5011443;28;49724;-69
2022/11/24 10:31:35;;;;;;;;;3.00;3.00;;;;;11.35;100.00;101096.91;5016680;28;49607;-69
2022/11/24 10:34:08;;;;;;;;;4.50;4.00;;;;;11.50;100.00;101109.53;5014786;28;49819;-69
2022/11/24 10:36:55;;;;;;;;;4.00;4.00;;;;;11.42;100.00;101094.47;5018428;28;49535;-68
2022/11/24 10:39:29;;;;;;;;;4.00;2.25;;;;;11.62;100.00;101099.28;5030015;28;50291;-69
2022/11/24 10:42:06;;;;;;;;;5.00;4.00;;;;;11.50;100.00;101078.84;5029359;28;50489;-69
2022/11/24 10:44:31;;;;;;;;;10.00;7.50;;;;;11.66;100.00;101095.84;5032466;28;49923;-68
2022/11/24 10:46:57;;;;;;;;;5.00;3.00;;;;;11.50;100.00;101060.44;5033199;28;50105;-69
2022/11/24 10:49:27;;;;;;;;;4.00;4.00;;;;;11.67;100.00;101084.47;5032680;28;49668;-69
2022/11/24 10:52:04;;;;;;;;;6.00;3.75;;;;;11.75;100.00;101098.66;5033796;28;49788;-69
2022/11/24 10:54:30;;;;;;;;;3.00;3.00;;;;;11.79;100.00;101091.75;5037735;28;49720;-69
2022/11/24 10:56:56;;;;;;;;;2.00;2.00;;;;;11.74;100.00;101079.38;5036185;28;49757;-72
2022/11/24 10:59:35;;;;;;;;;4.25;2.00;;;;;11.79;100.00;101090.00;5035320;28;49776;-70
2022/11/24 11:02:02;;;;;;;;;3.25;2.00;;;;;11.82;100.00;101090.09;5011483;28;52706;-69
2022/11/24 11:04:34;;;;;;;;;1.75;1.00;;;;;11.90;100.00;101087.63;5030586;28;49643;-71
2022/11/24 11:07:19;;;;;;;;;3.00;3.00;;;;;11.95;100.00;101083.31;5036496;28;49818;-71
2022/11/24 11:09:46;;;;;;;;;3.00;2.00;;;;;11.92;100.00;101067.50;5029819;28;49966;-71
2022/11/24 11:12:23;;;;;;;;;1.25;1.25;;;;;11.94;100.00;101053.50;5004439;28;51041;-69
2022/11/24 11:14:48;;;;;;;;;5.75;5.75;;;;;12.04;100.00;101065.97;5016601;28;49799;-69
2022/11/24 11:17:34;;;;;;;;;3.75;3.75;;;;;12.10;100.00;101069.59;5011455;28;49700;-69
2022/11/24 11:20:14;;;;;;;;;1.75;1.75;;;;;11.97;100.00;101040.44;5010824;28;49949;-78
2022/11/24 11:22:42;;;;;;;;;3.50;3.50;;;;;12.07;100.00;101041.50;5004447;28;51599;-73
2022/11/24 11:25:31;;;;;;;;;2.50;2.00;;;;;12.06;100.00;101031.78;5010510;28;49742;-73
2022/11/24 11:28:22;;;;;;;;;4.25;4.25;;;;;12.23;100.00;101056.69;5005120;28;49762;-72
2022/11/24 11:31:01;;;;;;;;;4.75;4.25;;;;;12.21;100.00;101036.47;5010805;28;49805;-72
2022/11/24 11:33:29;;;;;;;;;5.50;3.75;;;;;12.08;100.00;100979.22;5010239;28;49790;-75
2022/11/24 11:35:56;;;;;;;;;6.00;4.00;;;;;12.16;100.00;100993.38;5011167;28;49722;-75
2022/11/24 11:38:24;;;;;;;;;5.50;4.00;;;;;12.36;100.00;101018.34;5026522;28;49947;-77
2022/11/24 11:40:50;;;;;;;;;4.00;4.00;;;;;12.47;100.00;101029.06;5016396;28;49840;-72
2022/11/24 11:43:29;;;;;;;;;2.50;2.50;;;;;12.40;100.00;101012.25;5010608;28;50872;-72
2022/11/24 11:46:02;;;;;;;;;9.00;7.25;;;;;12.53;100.00;101027.38;5011824;28;49834;-70
2022/11/24 11:48:31;;;;;;;;;5.75;3.50;;;;;12.58;100.00;101016.94;5016204;28;50054;-69
2022/11/24 11:51:04;;;;;;;;;8.00;5.75;;;;;12.53;100.00;100987.00;5018028;28;50860;-72
2022/11/24 11:53:43;;;;;;;;;4.00;4.00;;;;;12.64;100.00;101009.13;5014022;28;50804;-72
2022/11/24 11:56:16;;;;;;;;;8.50;4.00;;;;;12.79;100.00;101017.28;5034103;28;49906;-69
2022/11/24 11:58:42;;;;;;;;;4.50;3.00;;;;;12.85;100.00;101006.88;5031798;28;49752;-73
2022/11/24 12:01:28;;;;;;;;;9.25;5.00;;;;;12.89;100.00;100995.50;5019906;28;49762;-68
2022/11/24 12:04:45;;;;;;;;;7.00;4.25;;;;;12.95;100.00;100994.72;5023903;28;50511;-64
2022/11/24 12:07:32;;;;;;;;;6.25;4.00;;;;;13.04;100.00;100988.69;4976859;28;50170;-75
2022/11/24 12:10:16;;;;;;;;;6.75;5.50;;;;;13.00;100.00;100965.78;5031827;28;50019;-70
2022/11/24 12:12:44;;;;;;;;;3.00;3.00;;;;;13.10;99.06;100981.72;5024539;28;49827;-72
2022/11/24 12:15:18;;;;;;;;;2.50;2.00;;;;;12.94;99.88;100953.41;5037411;28;49967;-79
2022/11/24 12:17:49;;;;;;;;;5.25;4.25;;;;;13.17;98.20;100980.97;5038463;28;49611;-76
2022/11/24 12:20:23;;;;;;;;;3.00;3.00;;;;;13.17;97.80;100986.25;5031590;28;49809;-71
2022/11/24 12:23:13;;;;;;;;;7.50;3.25;;;;;13.19;98.88;100983.66;5036152;28;49725;-71
2022/11/24 12:25:50;;;;;;;;;6.25;4.25;;;;;13.00;98.85;100942.06;5016801;28;49936;-73
2022/11/24 12:28:34;;;;;;;;;10.00;5.50;;;;;13.19;97.71;100978.38;5015616;28;49889;-70
2022/11/24 12:31:05;;;;;;;;;6.75;3.25;;;;;12.89;98.34;100945.44;5016728;28;49821;-71
2022/11/24 12:33:30;;;;;;;;;2.50;2.00;;;;;13.11;99.08;100980.88;5014481;28;49732;-73
2022/11/24 12:36:15;;;;;;;;;4.00;4.00;;;;;13.11;98.46;100972.06;5015088;28;50102;-71
2022/11/24 12:39:05;;;;;;;;;5.00;3.50;;;;;13.11;98.04;100978.22;5017562;28;49600;-71
2022/11/24 12:41:58;;;;;;;;;5.75;3.25;;;;;13.10;98.17;100972.94;5016981;28;49829;-73
2022/11/24 12:44:43;;;;;;;;;6.50;4.25;;;;;13.09;98.21;100976.44;5020035;28;50124;-71
2022/11/24 12:47:20;;;;;;;;;7.75;4.50;;;;;13.07;99.61;100976.44;5020388;28;49782;-77
2022/11/24 12:49:51;;;;;;;;;4.00;3.50;;;;;12.94;99.80;100948.16;5037701;28;49769;-70
2022/11/24 12:52:28;;;;;;;;;5.50;5.25;;;;;13.05;99.95;100962.34;5036329;28;49650;-70
2022/11/24 12:54:55;;;;;;;;;4.00;4.00;;;;;13.03;100.00;100966.72;5036754;28;50071;-71
2022/11/24 12:57:33;;;;;;;;;6.25;4.25;;;;;12.97;100.00;100952.56;5031989;28;50057;-74
2022/11/24 13:00:15;;;;;;;;;4.00;2.75;;;;;12.96;100.00;100949.03;5017530;28;49721;-71
2022/11/24 13:02:59;;;;;;;;;8.00;5.00;;;;;13.04;100.00;100954.44;5016974;28;49995;-71
2022/11/24 13:05:36;;;;;;;;;5.75;4.75;;;;;13.05;100.00;100951.81;5032971;28;49649;-72
2022/11/24 13:08:04;;;;;;;;;5.50;4.00;;;;;13.08;100.00;100953.59;5036352;28;49650;-70
2022/11/24 13:10:32;;;;;;;;;5.50;4.00;;;;;13.11;100.00;100943.09;5034602;28;49907;-70
2022/11/24 13:13:01;;;;;;;;;7.00;4.75;;;;;13.11;100.00;100943.97;5034804;28;49718;-71
2022/11/24 13:15:28;;;;;;;;;2.00;0.75;;;;;13.13;100.00;100947.53;5032566;28;50013;-71
2022/11/24 13:17:54;;;;;;;;;5.00;5.00;;;;;13.08;100.00;100941.31;5030422;28;49885;-71
2022/11/24 13:20:20;;;;;;;;;11.25;8.75;;;;;13.09;100.00;100936.91;5043693;28;49847;-68
2022/11/24 13:22:54;;;;;;;;;7.00;5.50;;;;;13.16;100.00;100942.28;5026289;28;49749;-68
2022/11/24 13:25:27;;;;;;;;;10.25;6.75;;;;;13.06;100.00;100921.94;5041197;28;49803;-69
2022/11/24 13:27:56;;;;;;;;;6.75;5.50;;;;;13.17;100.00;100941.44;5041774;28;50701;-68
2022/11/24 13:30:33;;;;;;;;;15.50;9.75;;;;;13.24;100.00;100944.19;4995306;28;49736;-70
2022/11/24 13:33:20;;;;;;;;;5.25;5.25;;;;;13.25;100.00;100935.41;5015283;28;49828;-69
2022/11/24 13:36:21;;;;;;;;;6.50;5.50;;;;;13.30;100.00;100942.50;5000185;28;49734;-70
2022/11/24 13:38:46;;;;;;;;;7.75;4.75;;;;;13.30;98.14;100928.41;4963627;28;50746;-68
2022/11/24 13:41:30;;;;;;;;;4.50;4.50;;;;;13.26;97.47;100930.16;5011840;28;49839;-69
2022/11/24 13:44:13;;;;;;;;;8.50;6.75;;;;;13.28;97.70;100932.81;5031349;28;49793;-68
2022/11/24 13:46:59;;;;;;;;;4.25;3.25;;;;;13.30;98.14;100929.31;5031431;28;49721;-68
2022/11/24 13:49:37;;;;;;;;;4.50;4.00;;;;;13.18;97.51;100900.13;5031256;28;50476;-68
2022/11/24 13:52:33;;;;;;;;;7.25;5.50;;;;;13.30;97.77;100925.78;5030965;28;49642;-69
2022/11/24 13:55:00;;;;;;;;;6.25;4.50;;;;;13.26;99.18;100927.50;5030946;28;49859;-68
2022/11/24 13:57:37;;;;;;;;;6.75;4.25;;;;;13.21;98.45;100937.09;5031003;28;50044;-69
2022/11/24 14:00:04;;;;;;;;;5.00;4.50;;;;;13.24;98.35;100942.44;5031070;28;50905;-69
2022/11/24 14:02:30;;;;;;;;;9.75;5.75;;;;;13.08;98.59;100904.41;5030765;28;49713;-71
2022/11/24 14:04:57;;;;;;;;;5.00;4.25;;;;;13.10;98.74;100928.13;5030852;28;49651;-69
2022/11/24 14:07:23;;;;;;;;;3.75;3.75;;;;;13.27;99.42;100941.56;5031223;28;49973;-73
2022/11/24 14:09:51;;;;;;;;;5.00;4.00;;;;;13.34;99.02;100953.97;5030607;28;49779;-70
2022/11/24 14:12:25;;;;;;;;;9.00;6.00;;;;;13.37;99.71;100943.47;5030868;28;49690;-70
2022/11/24 14:14:54;;;;;;;;;8.50;4.00;;;;;13.36;99.72;100931.16;5030914;28;49704;-75
2022/11/24 14:17:26;;;;;;;;;10.50;7.25;;;;;13.39;99.43;100942.59;5030804;28;49749;-70
2022/11/24 14:19:54;;;;;;;;;3.25;2.00;;;;;13.43;99.54;100925.09;5030629;28;49790;-70
2022/11/24 14:22:25;;;;;;;;;6.75;3.75;;;;;13.62;99.19;100953.44;5030480;28;49946;-70
2022/11/24 14:24:56;;;;;;;;;9.75;8.00;;;;;13.63;98.94;100941.13;5030886;28;49631;-70
2022/11/24 14:27:35;;;;;;;;;5.50;3.75;;;;;13.64;98.29;100946.44;5031003;28;50484;-70
2022/11/24 14:30:23;;;;;;;;;8.25;6.50;;;;;13.56;98.80;100923.47;5030996;28;50804;-68
2022/11/24 14:32:53;;;;;;;;;2.25;1.25;;;;;13.55;99.16;100927.84;5007331;28;49947;-67
2022/11/24 14:35:24;;;;;;;;;4.25;4.25;;;;;13.44;98.95;100903.13;5011161;28;50011;-68
2022/11/24 14:37:49;;;;;;;;;9.50;6.00;;;;;13.46;99.65;100898.75;5011223;28;49658;-68
2022/11/24 14:40:39;;;;;;;;;4.75;3.75;;;;;13.38;100.00;100893.38;5011497;28;50877;-71
2022/11/24 14:43:25;;;;;;;;;4.25;4.25;;;;;13.40;100.00;100898.66;5011506;28;49808;-70
2022/11/24 14:45:57;;;;;;;;;7.00;3.75;;;;;13.38;100.00;100889.84;5011578;28;49979;-71
2022/11/24 14:48:32;;;;;;;;;10.50;5.50;;;;;13.07;100.00;100849.94;5011829;28;49810;-69
2022/11/24 14:51:09;;;;;;;;;5.75;4.75;;;;;13.23;100.00;100880.03;5010783;28;49870;-68
2022/11/24 14:53:35;;;;;;;;;6.25;3.00;;;;;13.06;100.00;100869.25;5010894;28;49860;-68
2022/11/24 14:56:24;;;;;;;;;4.75;2.50;;;;;13.03;100.00;100858.66;5011206;28;49808;-69
2022/11/24 14:58:50;;;;;;;;;7.00;5.00;;;;;12.93;100.00;100856.75;5011510;28;49532;-68
2022/11/24 15:01:34;;;;;;;;;6.50;6.50;;;;;13.00;100.00;100887.59;5004353;28;50511;-68
2022/11/24 15:04:24;;;;;;;;;4.25;4.00;;;;;12.93;100.00;100885.75;5011485;28;49899;-67
2022/11/24 15:07:15;;;;;;;;;6.00;3.50;;;;;12.89;100.00;100890.09;5011044;28;49838;-68
2022/11/24 15:09:53;;;;;;;;;3.00;3.00;;;;;12.77;100.00;100878.53;5011220;28;49637;-70
2022/11/24 15:12:33;;;;;;;;;10.75;7.50;;;;;12.67;100.00;100853.81;5010795;28;50401;-70
2022/11/24 15:15:17;;;;;;;;;4.75;4.25;;;;;12.77;100.00;100867.97;5011089;28;49692;-70
2022/11/24 15:17:49;;;;;;;;;7.00;5.25;;;;;12.56;100.00;100844.88;5010717;28;49815;-70
2022/11/24 15:20:30;;;;;;;;;6.75;3.75;;;;;12.83;100.00;100895.28;5010977;28;49730;-70
2022/11/24 15:23:15;;;;;;;;;4.25;3.50;;;;;12.81;100.00;100897.00;5010321;28;50598;-69
2022/11/24 15:25:41;;;;;;;;;2.00;2.00;;;;;12.76;100.00;100895.19;5010747;28;49939;-70
2022/11/24 15:28:08;;;;;;;;;6.75;4.00;;;;;12.76;100.00;100898.72;5010748;28;49823;-70
2022/11/24 15:30:34;;;;;;;;;7.50;6.00;;;;;12.71;100.00;100883.69;5013330;28;49884;-70
2022/11/24 15:33:00;;;;;;;;;9.00;6.50;;;;;12.78;100.00;100904.00;5020876;28;50010;-70
2022/11/24 15:35:29;;;;;;;;;11.00;4.00;;;;;12.65;100.00;100883.63;5033082;28;49692;-72
2022/11/24 15:37:55;;;;;;;;;4.50;2.75;;;;;12.82;100.00;100913.69;5013139;28;49792;-73
2022/11/24 15:40:20;;;;;;;;;10.75;5.50;;;;;12.32;100.00;100814.69;5011264;28;49811;-75
2022/11/24 15:42:54;;;;;;;;;10.00;6.50;;;;;12.84;100.00;100894.44;5018765;28;51231;-71
2022/11/24 15:45:22;;;;;;;;;7.00;5.00;;;;;12.84;100.00;100901.47;5019430;28;49649;-73
2022/11/24 15:47:47;;;;;;;;;9.00;4.75;;;;;12.86;100.00;100899.72;5012444;28;49869;-71
2022/11/24 15:50:14;;;;;;;;;5.00;4.75;;;;;12.86;100.00;100897.09;5011999;28;50087;-71
2022/11/24 15:52:39;;;;;;;;;5.00;3.75;;;;;12.87;100.00;100885.69;5014443;28;49951;-73
2022/11/24 15:55:06;;;;;;;;;5.50;4.00;;;;;12.65;100.00;100846.75;4997983;28;50013;-73
2022/11/24 15:57:32;;;;;;;;;5.00;4.75;;;;;12.87;100.00;100889.19;4993876;28;50128;-72
2022/11/24 15:59:58;;;;;;;;;3.25;3.25;;;;;12.60;100.00;100849.31;5010205;28;50043;-73
2022/11/24 16:02:24;;;;;;;;;4.25;3.00;;;;;12.85;100.00;100879.50;5017494;28;49812;-72
2022/11/24 16:04:50;;;;;;;;;10.75;5.50;;;;;12.79;100.00;100864.50;5010945;28;49889;-74
2022/11/24 16:07:15;;;;;;;;;4.00;2.25;;;;;12.76;100.00;100863.59;5010972;28;49642;-74
2022/11/24 16:09:41;;;;;;;;;8.25;3.75;;;;;12.80;100.00;100875.91;5009895;28;50800;-74
2022/11/24 16:12:09;;;;;;;;;5.25;3.75;;;;;12.70;100.00;100860.84;5022230;28;61680;-71
2022/11/24 16:14:35;;;;;;;;;5.00;3.00;;;;;12.71;100.00;100854.72;5010340;28;49585;-72
2022/11/24 16:17:01;;;;;;;;;10.75;5.75;;;;;12.77;100.00;100860.97;5010114;28;49969;-74
2022/11/24 16:19:26;;;;;;;;;4.75;4.75;;;;;12.75;100.00;100861.81;5010135;28;49757;-74
2022/11/24 16:21:52;;;;;;;;;6.00;4.25;;;;;12.36;100.00;100810.38;5014442;28;50252;-74
2022/11/24 16:24:17;;;;;;;;;5.00;3.00;;;;;12.76;100.00;100880.28;5007025;28;49739;-73
2022/11/24 16:26:43;;;;;;;;;2.75;2.00;;;;;12.79;100.00;100868.88;5005962;28;49655;-73
2022/11/24 16:29:08;;;;;;;;;8.50;5.50;;;;;12.74;100.00;100865.28;5010237;28;49808;-74
2022/11/24 16:31:34;;;;;;;;;5.25;2.75;;;;;12.82;100.00;100871.53;5015431;28;49930;-74
2022/11/24 16:33:59;;;;;;;;;4.75;4.00;;;;;12.80;100.00;100876.81;5013282;28;49778;-72
2022/11/24 16:36:25;;;;;;;;;4.00;4.00;;;;;12.53;100.00;100829.88;5018186;28;49651;-76
2022/11/24 16:38:51;;;;;;;;;4.75;3.50;;;;;12.60;100.00;100828.25;5000704;28;51441;-77
2022/11/24 16:41:16;;;;;;;;;5.25;2.75;;;;;11.81;100.00;100709.56;5011900;28;50700;-75
2022/11/24 16:43:41;;;;;;;;;6.50;3.75;;;;;12.75;100.00;100846.00;5017874;28;49831;-77
2022/11/24 16:46:15;;;;;;;;;6.00;6.00;;;;;12.56;100.00;100813.28;5015456;28;49836;-80
2022/11/24 16:48:41;;;;;;;;;7.75;4.00;;;;;12.21;100.00;100768.03;5012848;28;49914;-76
2022/11/24 16:51:07;;;;;;;;;6.00;5.00;;;;;12.89;100.00;100871.66;5010451;28;49863;-77
2022/11/24 16:53:33;;;;;;;;;2.00;1.50;;;;;12.23;100.00;100771.56;5012664;28;49805;-76
2022/11/24 16:55:58;;;;;;;;;9.00;5.00;;;;;12.89;100.00;100890.09;5012510;28;49942;-76
2022/11/24 16:58:24;;;;;;;;;7.00;3.75;;;;;12.32;100.00;100779.56;4994058;28;49989;-73
2022/11/24 17:00:49;;;;;;;;;8.00;6.75;;;;;11.97;100.00;100708.94;5016382;28;51043;-74
2022/11/24 17:03:14;;;;;;;;;13.75;7.00;;;;;11.67;100.00;100679.50;5017678;28;50107;-73
2022/11/24 17:05:40;;;;;;;;;10.00;6.00;;;;;12.90;100.00;100869.91;5012015;28;50300;-73
2022/11/24 17:08:05;;;;;;;;;5.50;4.00;;;;;12.70;100.00;100858.22;5027156;28;49808;-74
2022/11/24 17:10:31;;;;;;;;;4.00;3.75;;;;;11.45;100.00;100621.34;5032568;28;50650;-73
2022/11/24 17:12:56;;;;;;;;;5.00;5.00;;;;;12.10;100.00;100754.72;5035190;28;49392;-75
2022/11/24 17:15:21;;;;;;;;;8.25;4.25;;;;;11.54;100.00;100657.41;5034039;28;49883;-74